Terminal Aerodrome Forecast
Issued by NWS Cleveland, OH

Home | Current Version | Previous Version | Graphics & Text | Print | Product List | Glossary On
Versions: 1 2 3 4 5 6 7 8 9 10 11 12 13 14 15 16 17 18
000
FTUS41 KCLE 140500
TAFCAK
TAF
KCAK 140520Z 1406/1506 20011G18KT P6SM BKN250 WS015/22055KT
     FM141000 19015G25KT P6SM OVC120 WS015/22055KT
     FM141400 20024G34KT P6SM OVC045
      TEMPO 1416/1420 5SM -SHRA BKN030
     FM142000 21020G28KT 6SM -SHRA VCTS SCT020CB OVC035
      TEMPO 1420/1424 4SM SHRA BR OVC020
     FM150000 22012KT 6SM -DZ BR OVC020
     FM150300 25012KT 4SM -DZ BR OVC012=

USA.gov is the U.S. government's official web portal to all federal, state and local government web resources and services.